Time;durP1;ratioP1;P1;durP2;ratioP2;P2;SDS_P1;SDS_P2;PMS_P1;PMS_P2;Temp;Humidity;BMP_temperature;BMP_pressure;BME280_temperature;BME280_humidity;BME280_pressure;Samples;Min_cycle;Max_cycle;Signal;HPM_P1;HPM_P2
2024/03/24 00:01:44;;;;;;;7.45;3.20;;;5.80;99.90;;;;;;5010235;28;20024;-83
2024/03/24 00:04:09;;;;;;;8.88;3.08;;;5.80;99.90;;;;;;5018290;28;20030;-82
2024/03/24 00:06:35;;;;;;;5.35;2.58;;;5.90;99.90;;;;;;5014614;28;20029;-82
2024/03/24 00:09:01;;;;;;;10.07;3.40;;;5.90;99.90;;;;;;5022284;28;20564;-82
2024/03/24 00:11:26;;;;;;;4.78;2.60;;;5.90;99.90;;;;;;5023404;28;20022;-82
2024/03/24 00:13:52;;;;;;;7.60;2.95;;;5.90;99.90;;;;;;5015729;28;20026;-82
2024/03/24 00:16:18;;;;;;;6.65;2.90;;;5.90;99.90;;;;;;5020207;28;20029;-82
2024/03/24 00:18:43;;;;;;;6.43;2.80;;;5.90;99.90;;;;;;5008047;28;20042;-82
2024/03/24 00:21:09;;;;;;;5.60;2.83;;;6.00;99.90;;;;;;5019905;28;20518;-82
2024/03/24 00:23:34;;;;;;;5.43;2.60;;;6.00;99.90;;;;;;5027661;28;20087;-81
2024/03/24 00:26:00;;;;;;;6.90;2.85;;;6.00;99.90;;;;;;5019176;28;20045;-82
2024/03/24 00:28:25;;;;;;;6.63;2.65;;;6.00;99.90;;;;;;5022009;28;20035;-82
2024/03/24 00:30:51;;;;;;;8.85;3.10;;;6.10;99.90;;;;;;5025590;28;20028;-81
2024/03/24 00:33:17;;;;;;;8.48;2.80;;;6.10;99.90;;;;;;5018313;28;20025;-82
2024/03/24 00:35:43;;;;;;;7.45;2.85;;;6.10;99.90;;;;;;5022309;28;20026;-82
2024/03/24 00:38:08;;;;;;;7.55;3.22;;;6.10;99.90;;;;;;5015315;28;20482;-82
2024/03/24 00:40:34;;;;;;;12.20;3.20;;;6.20;99.90;;;;;;5014565;28;20093;-82
2024/03/24 00:43:00;;;;;;;8.82;3.38;;;6.20;99.90;;;;;;5025228;28;20025;-82
2024/03/24 00:45:25;;;;;;;7.53;3.67;;;6.20;99.90;;;;;;5016490;28;20026;-81
2024/03/24 00:47:51;;;;;;;7.15;3.75;;;6.20;99.90;;;;;;5024697;28;20050;-82
2024/03/24 00:50:17;;;;;;;7.85;3.20;;;6.20;99.90;;;;;;5018623;28;20028;-81
2024/03/24 00:52:43;;;;;;;8.52;3.65;;;6.20;99.90;;;;;;5032058;28;20017;-81
2024/03/24 00:55:09;;;;;;;14.13;3.53;;;6.20;99.90;;;;;;5015491;28;20028;-81
2024/03/24 00:57:35;;;;;;;9.77;3.65;;;6.20;99.90;;;;;;5027000;28;20021;-82
2024/03/24 01:00:02;;;;;;;10.13;3.80;;;6.20;99.90;;;;;;5013672;28;20383;-81
2024/03/24 01:02:27;;;;;;;9.23;4.03;;;6.20;99.90;;;;;;5015638;28;20395;-82
2024/03/24 01:04:53;;;;;;;9.05;3.75;;;6.20;99.90;;;;;;5021603;28;20022;-82
2024/03/24 01:07:19;;;;;;;7.72;3.85;;;6.20;99.90;;;;;;5014329;28;20029;-81
2024/03/24 01:09:44;;;;;;;11.98;3.88;;;6.20;99.90;;;;;;5017996;28;20022;-82
2024/03/24 01:12:10;;;;;;;8.77;3.80;;;6.20;99.90;;;;;;5019486;28;20033;-84
2024/03/24 01:14:35;;;;;;;9.15;4.10;;;6.20;99.90;;;;;;5018554;28;20018;-81
2024/03/24 01:17:01;;;;;;;11.63;4.03;;;6.20;99.90;;;;;;5017943;28;20045;-82
2024/03/24 01:19:27;;;;;;;9.00;4.07;;;6.10;99.90;;;;;;5018438;28;20032;-80
2024/03/24 01:21:53;;;;;;;8.23;3.80;;;6.10;99.90;;;;;;5019522;28;20453;-82
2024/03/24 01:24:18;;;;;;;8.48;4.60;;;6.10;99.90;;;;;;5017547;28;20473;-81
2024/03/24 01:26:44;;;;;;;10.10;4.28;;;6.10;99.90;;;;;;5021462;28;20045;-80
2024/03/24 01:29:12;;;;;;;10.20;4.72;;;6.10;99.90;;;;;;5010680;28;20018;-81
2024/03/24 01:31:37;;;;;;;9.35;4.60;;;6.10;99.90;;;;;;5016503;28;20462;-81
2024/03/24 01:34:03;;;;;;;9.27;4.38;;;6.00;99.90;;;;;;5012710;28;20113;-81
2024/03/24 01:36:29;;;;;;;8.20;4.07;;;6.00;99.90;;;;;;5017804;28;20026;-82
2024/03/24 01:38:56;;;;;;;9.43;4.40;;;6.00;99.90;;;;;;5035543;28;20078;-83
2024/03/24 01:41:22;;;;;;;7.35;4.30;;;6.00;99.90;;;;;;5012753;28;20056;-81
2024/03/24 01:43:48;;;;;;;9.30;4.20;;;6.00;99.90;;;;;;5033696;28;20429;-82
2024/03/24 01:46:14;;;;;;;10.75;4.85;;;6.00;99.90;;;;;;5041776;28;20021;-82
2024/03/24 01:48:39;;;;;;;9.50;5.05;;;6.00;99.90;;;;;;5019531;28;20032;-84
2024/03/24 01:51:09;;;;;;;8.85;4.75;;;6.00;99.90;;;;;;5025189;28;20037;-81
2024/03/24 01:53:37;;;;;;;11.30;5.25;;;6.00;99.90;;;;;;5019355;28;20290;-81
2024/03/24 01:56:03;;;;;;;15.10;5.45;;;6.00;99.90;;;;;;5030177;28;20109;-83
2024/03/24 01:58:31;;;;;;;9.45;5.40;;;6.00;99.90;;;;;;5017358;28;20108;-83
2024/03/24 02:00:57;;;;;;;9.63;5.00;;;6.00;99.90;;;;;;5017875;28;20514;-82
2024/03/24 02:03:23;;;;;;;9.60;5.50;;;6.00;99.90;;;;;;5024626;28;20503;-82
2024/03/24 02:05:49;;;;;;;13.77;5.80;;;6.00;99.90;;;;;;5021971;28;20033;-83
2024/03/24 02:08:15;;;;;;;11.35;4.85;;;6.00;99.90;;;;;;5016908;28;20030;-82
2024/03/24 02:10:41;;;;;;;9.57;5.05;;;6.10;99.90;;;;;;5030536;28;20068;-85
2024/03/24 02:13:08;;;;;;;7.93;5.18;;;6.10;99.90;;;;;;5029040;28;20056;-82
2024/03/24 02:15:34;;;;;;;10.20;5.13;;;6.10;99.90;;;;;;5017610;28;20474;-81
2024/03/24 02:17:59;;;;;;;10.05;5.07;;;6.00;99.90;;;;;;5038845;28;20121;-82
2024/03/24 02:20:25;;;;;;;12.73;5.22;;;6.10;99.90;;;;;;5045449;28;20861;-83
2024/03/24 02:22:50;;;;;;;12.52;5.32;;;6.10;99.90;;;;;;5030015;28;20028;-84
2024/03/24 02:25:16;;;;;;;10.55;5.22;;;6.10;99.90;;;;;;5016487;28;20096;-81
2024/03/24 02:27:42;;;;;;;10.18;5.25;;;6.10;99.90;;;;;;5020626;28;20526;-81
2024/03/24 02:30:10;;;;;;;10.30;4.53;;;6.10;99.90;;;;;;5013904;28;20080;-83
2024/03/24 02:32:45;;;;;;;10.40;4.90;;;6.10;99.90;;;;;;5023813;28;20029;-82
2024/03/24 02:35:12;;;;;;;8.85;4.53;;;6.20;99.90;;;;;;5019918;28;20071;-83
2024/03/24 02:37:38;;;;;;;8.93;5.07;;;6.20;99.90;;;;;;5015758;28;20026;-82
2024/03/24 02:40:07;;;;;;;10.05;4.72;;;6.20;99.90;;;;;;5020614;28;20364;-83
2024/03/24 02:42:32;;;;;;;11.85;5.22;;;6.20;99.90;;;;;;5023488;28;20049;-83
2024/03/24 02:44:58;;;;;;;9.90;5.00;;;6.20;99.90;;;;;;5017258;28;20053;-85
2024/03/24 02:47:24;;;;;;;12.52;4.80;;;6.20;99.90;;;;;;5016687;28;20380;-83
2024/03/24 02:49:49;;;;;;;12.35;5.05;;;6.20;99.90;;;;;;5023760;28;20168;-82
2024/03/24 02:52:15;;;;;;;11.63;5.63;;;6.20;99.90;;;;;;5021202;28;20195;-82
2024/03/24 02:54:41;;;;;;;12.13;5.65;;;6.20;99.90;;;;;;5028787;28;20026;-82
2024/03/24 02:57:06;;;;;;;11.77;5.28;;;6.20;99.90;;;;;;5020340;28;20020;-82
2024/03/24 02:59:33;;;;;;;12.82;5.43;;;6.20;99.90;;;;;;5023127;28;20049;-82
2024/03/24 03:01:58;;;;;;;13.27;6.45;;;6.20;99.90;;;;;;5015865;28;20498;-81
2024/03/24 03:04:24;;;;;;;11.40;6.03;;;6.30;99.90;;;;;;5015822;28;20076;-81
2024/03/24 03:06:50;;;;;;;13.07;6.78;;;6.30;99.90;;;;;;5023522;28;20029;-80
2024/03/24 03:09:18;;;;;;;10.80;6.75;;;6.30;99.90;;;;;;5020428;28;20086;-81
2024/03/24 03:11:44;;;;;;;14.80;6.25;;;6.20;99.90;;;;;;5038403;28;20025;-80
2024/03/24 03:14:10;;;;;;;12.63;6.05;;;6.30;99.90;;;;;;5018869;28;20018;-80
2024/03/24 03:16:38;;;;;;;13.68;6.43;;;6.30;99.90;;;;;;5013707;28;20486;-80
2024/03/24 03:19:04;;;;;;;12.90;5.75;;;6.30;99.90;;;;;;5015782;28;20064;-79
2024/03/24 03:21:39;;;;;;;12.35;5.90;;;6.20;99.90;;;;;;5020830;28;20025;-78
2024/03/24 03:24:05;;;;;;;12.50;5.55;;;6.20;99.90;;;;;;5021506;28;20049;-78
2024/03/24 03:26:31;;;;;;;13.00;6.35;;;6.20;99.90;;;;;;5022603;28;20029;-78
2024/03/24 03:28:56;;;;;;;14.27;6.25;;;6.20;99.90;;;;;;5013274;28;20017;-79
2024/03/24 03:31:22;;;;;;;9.00;5.38;;;6.20;99.90;;;;;;5016431;28;20052;-79
2024/03/24 03:33:48;;;;;;;13.50;6.78;;;6.30;99.90;;;;;;5014884;28;20018;-78
2024/03/24 03:36:13;;;;;;;10.93;5.57;;;6.30;99.90;;;;;;5022896;28;20041;-77
2024/03/24 03:38:39;;;;;;;12.43;6.63;;;6.20;99.90;;;;;;5019835;28;20029;-77
2024/03/24 03:41:05;;;;;;;11.35;6.10;;;6.20;99.90;;;;;;5014580;28;20136;-78
2024/03/24 03:43:32;;;;;;;15.73;6.75;;;6.20;99.90;;;;;;5018898;28;20048;-77
2024/03/24 03:45:58;;;;;;;19.20;7.10;;;6.20;99.90;;;;;;5022856;28;20112;-77
2024/03/24 03:48:24;;;;;;;13.55;6.00;;;6.20;99.90;;;;;;5015875;28;20033;-78
2024/03/24 03:50:49;;;;;;;10.90;6.15;;;6.20;99.90;;;;;;5014882;28;20029;-77
2024/03/24 03:53:22;;;;;;;12.10;5.60;;;6.20;99.90;;;;;;5027748;28;20024;-78
2024/03/24 03:55:51;;;;;;;14.10;5.82;;;6.20;99.90;;;;;;5016137;28;20037;-78
2024/03/24 03:58:17;;;;;;;14.43;6.25;;;6.30;99.90;;;;;;5022064;28;20499;-78
2024/03/24 04:00:43;;;;;;;16.02;6.30;;;6.30;99.90;;;;;;5019609;28;20029;-78
2024/03/24 04:03:09;;;;;;;11.80;5.70;;;6.40;99.90;;;;;;5014145;28;20108;-78
2024/03/24 04:05:41;;;;;;;14.20;5.30;;;6.40;99.90;;;;;;5026970;28;20029;-78
2024/03/24 04:08:08;;;;;;;14.27;5.88;;;6.40;99.90;;;;;;5025890;28;20032;-76
2024/03/24 04:10:35;;;;;;;8.68;2.70;;;6.40;99.90;;;;;;5015562;28;20104;-76
2024/03/24 04:13:04;;;;;;;5.63;1.80;;;6.40;99.90;;;;;;5013605;28;20065;-75
2024/03/24 04:15:30;;;;;;;2.40;1.35;;;6.40;99.90;;;;;;5028037;28;20049;-76
2024/03/24 04:17:56;;;;;;;2.40;0.93;;;6.20;99.90;;;;;;5014738;28;20972;-76
2024/03/24 04:20:22;;;;;;;3.17;1.20;;;6.10;99.90;;;;;;5021819;28;20536;-75
2024/03/24 04:22:48;;;;;;;4.10;1.10;;;6.00;99.90;;;;;;5024973;28;20108;-76
2024/03/24 04:25:14;;;;;;;6.63;1.67;;;5.90;99.90;;;;;;5013402;28;20440;-76
2024/03/24 04:27:40;;;;;;;3.63;1.40;;;5.80;99.90;;;;;;5018591;28;20026;-75
2024/03/24 04:30:07;;;;;;;5.40;1.60;;;5.70;99.90;;;;;;5011381;28;20029;-76
2024/03/24 04:32:33;;;;;;;2.75;1.40;;;5.70;99.90;;;;;;5021625;28;20040;-77
2024/03/24 04:34:59;;;;;;;3.40;1.30;;;5.70;99.90;;;;;;5016779;28;20024;-76
2024/03/24 04:37:25;;;;;;;3.20;1.50;;;5.70;99.90;;;;;;5013729;28;20033;-77
2024/03/24 04:39:51;;;;;;;4.18;1.60;;;5.70;99.90;;;;;;5020003;28;20148;-77
2024/03/24 04:42:16;;;;;;;3.08;1.60;;;5.70;99.90;;;;;;5021178;28;20116;-77
2024/03/24 04:44:42;;;;;;;4.60;1.60;;;5.70;99.90;;;;;;5012913;28;20028;-76
2024/03/24 04:47:07;;;;;;;4.65;1.77;;;5.70;99.90;;;;;;5027484;28;20037;-77
2024/03/24 04:49:33;;;;;;;4.10;1.50;;;5.70;99.90;;;;;;5026923;28;20040;-77
2024/03/24 04:51:59;;;;;;;1.95;1.13;;;5.70;99.90;;;;;;5027394;28;20072;-77
2024/03/24 04:54:24;;;;;;;3.10;1.20;;;5.70;99.90;;;;;;5013001;28;20026;-77
2024/03/24 04:56:50;;;;;;;3.63;1.23;;;5.70;99.90;;;;;;5020611;28;20182;-77
2024/03/24 04:59:16;;;;;;;7.38;1.60;;;5.70;99.90;;;;;;5020345;28;20029;-78
2024/03/24 05:01:41;;;;;;;3.60;1.33;;;5.70;99.90;;;;;;5027112;28;20029;-77
2024/03/24 05:04:09;;;;;;;4.07;1.55;;;5.70;99.90;;;;;;5016173;28;20034;-78
2024/03/24 05:06:35;;;;;;;6.20;1.60;;;5.70;99.90;;;;;;5019776;28;20030;-78
2024/03/24 05:09:02;;;;;;;2.97;1.50;;;5.70;99.90;;;;;;5016132;28;20108;-76
2024/03/24 05:11:27;;;;;;;3.95;1.30;;;5.60;99.90;;;;;;5013122;28;20030;-77
2024/03/24 05:13:53;;;;;;;3.28;1.33;;;5.60;99.90;;;;;;5019511;28;20029;-75
2024/03/24 05:16:19;;;;;;;3.03;1.23;;;5.60;99.90;;;;;;5021157;28;20064;-76
2024/03/24 05:18:45;;;;;;;3.53;1.35;;;5.60;99.90;;;;;;5012716;28;20041;-76
2024/03/24 05:21:10;;;;;;;6.47;1.40;;;5.50;99.90;;;;;;5018828;28;20399;-76
2024/03/24 05:23:36;;;;;;;4.72;1.55;;;5.60;99.90;;;;;;5022306;28;20022;-76
2024/03/24 05:26:01;;;;;;;3.53;1.40;;;5.60;99.90;;;;;;5016638;28;20021;-75
2024/03/24 05:28:27;;;;;;;8.98;1.50;;;5.50;99.90;;;;;;5012773;28;20141;-76
2024/03/24 05:30:53;;;;;;;6.10;1.60;;;5.50;99.90;;;;;;5012930;28;20033;-76
2024/03/24 05:33:19;;;;;;;4.75;1.13;;;5.50;99.90;;;;;;5025074;28;20398;-76
2024/03/24 05:35:45;;;;;;;5.68;1.50;;;5.50;99.90;;;;;;5013179;28;20018;-76
2024/03/24 05:38:12;;;;;;;3.65;1.30;;;5.50;99.90;;;;;;5026542;28;20042;-76
2024/03/24 05:40:38;;;;;;;6.55;1.17;;;5.50;99.90;;;;;;5013306;28;20022;-76
2024/03/24 05:43:04;;;;;;;5.05;1.67;;;5.50;99.90;;;;;;5027022;28;20490;-76
2024/03/24 05:45:36;;;;;;;2.10;0.90;;;5.50;99.90;;;;;;5026928;28;20025;-77
2024/03/24 05:48:02;;;;;;;4.88;1.20;;;5.50;99.90;;;;;;5022223;28;20498;-76
2024/03/24 05:50:29;;;;;;;3.00;1.15;;;5.50;99.90;;;;;;5017252;28;20029;-76
2024/03/24 05:52:55;;;;;;;6.55;1.30;;;5.50;99.90;;;;;;5011340;28;20034;-77
2024/03/24 05:55:20;;;;;;;3.03;1.20;;;5.50;99.90;;;;;;5017962;28;20022;-76
2024/03/24 05:57:47;;;;;;;3.08;1.42;;;5.50;99.90;;;;;;5020945;28;20021;-77
2024/03/24 06:00:14;;;;;;;5.32;1.55;;;5.50;99.90;;;;;;5013926;28;20044;-76
2024/03/24 06:02:39;;;;;;;8.20;1.60;;;5.50;99.90;;;;;;5013575;28;20037;-77
2024/03/24 06:05:07;;;;;;;7.72;1.52;;;5.50;99.90;;;;;;5020314;28;20022;-77
2024/03/24 06:07:33;;;;;;;5.25;1.77;;;5.50;99.90;;;;;;5017783;28;20029;-75
2024/03/24 06:09:59;;;;;;;6.03;1.98;;;5.60;99.90;;;;;;5012364;28;20026;-76
2024/03/24 06:12:25;;;;;;;6.80;1.40;;;5.60;99.90;;;;;;5017021;28;20494;-76
2024/03/24 06:14:50;;;;;;;5.63;1.60;;;5.70;99.90;;;;;;5020071;28;20121;-76
2024/03/24 06:17:16;;;;;;;6.40;1.80;;;5.60;99.90;;;;;;5013810;28;20037;-75
2024/03/24 06:19:41;;;;;;;7.82;2.38;;;5.70;99.90;;;;;;5013015;28;20446;-75
2024/03/24 06:22:07;;;;;;;7.65;2.03;;;5.70;99.90;;;;;;5019616;28;20609;-76
2024/03/24 06:24:32;;;;;;;8.57;1.60;;;5.70;99.90;;;;;;5014940;28;20038;-75
2024/03/24 06:26:58;;;;;;;4.68;1.70;;;5.70;99.90;;;;;;5020210;28;20586;-74
2024/03/24 06:29:24;;;;;;;6.70;1.60;;;5.60;99.90;;;;;;5014347;28;20091;-75
2024/03/24 06:31:49;;;;;;;5.47;1.52;;;5.50;99.90;;;;;;5026252;28;20029;-74
2024/03/24 06:34:15;;;;;;;4.68;1.58;;;5.50;99.90;;;;;;5012634;28;20413;-75
2024/03/24 06:36:41;;;;;;;8.95;1.55;;;5.40;99.90;;;;;;5020613;28;20025;-75
2024/03/24 06:39:08;;;;;;;11.98;2.00;;;5.30;99.90;;;;;;5022118;28;20022;-75
2024/03/24 06:41:38;;;;;;;7.05;2.03;;;5.30;99.90;;;;;;5017360;28;20031;-74
2024/03/24 06:44:12;;;;;;;7.30;1.97;;;5.30;99.90;;;;;;5029364;28;20095;-74
2024/03/24 06:46:42;;;;;;;6.65;1.90;;;5.30;99.90;;;;;;5022385;28;20034;-75
2024/03/24 06:49:08;;;;;;;7.00;2.17;;;5.40;99.90;;;;;;5023592;28;20025;-74
2024/03/24 06:51:34;;;;;;;7.03;2.15;;;5.50;99.90;;;;;;5015174;28;20036;-76
2024/03/24 06:54:00;;;;;;;7.32;2.13;;;5.50;99.90;;;;;;5017259;28;20036;-75
2024/03/24 06:56:25;;;;;;;9.57;2.25;;;5.50;99.90;;;;;;5023486;28;20018;-75
2024/03/24 06:58:51;;;;;;;8.93;2.25;;;5.50;99.90;;;;;;5019040;28;20552;-75
2024/03/24 07:01:18;;;;;;;8.15;2.00;;;5.60;99.90;;;;;;5015377;28;20029;-75
2024/03/24 07:03:44;;;;;;;7.93;2.13;;;5.60;99.90;;;;;;5021184;28;20492;-75
2024/03/24 07:06:10;;;;;;;7.70;2.05;;;5.60;99.90;;;;;;5023254;28;20647;-75
2024/03/24 07:08:36;;;;;;;5.25;1.80;;;5.60;99.90;;;;;;5015019;28;20107;-75
2024/03/24 07:11:01;;;;;;;6.43;1.75;;;5.60;99.90;;;;;;5017577;28;20491;-76
2024/03/24 07:13:27;;;;;;;7.45;1.92;;;5.60;99.90;;;;;;5022913;28;20548;-76
2024/03/24 07:15:52;;;;;;;5.97;1.95;;;5.60;99.90;;;;;;5019302;28;20064;-76
2024/03/24 07:18:18;;;;;;;8.20;2.42;;;5.60;99.90;;;;;;5014885;28;20394;-75
2024/03/24 07:20:44;;;;;;;10.43;2.20;;;5.70;99.90;;;;;;5020599;28;20108;-75
2024/03/24 07:23:09;;;;;;;4.55;1.95;;;5.70;99.90;;;;;;5014894;28;20045;-75
2024/03/24 07:25:35;;;;;;;19.52;3.20;;;5.70;99.90;;;;;;5022713;28;20022;-75
2024/03/24 07:28:00;;;;;;;9.38;2.72;;;5.70;99.90;;;;;;5020895;28;20106;-76
2024/03/24 07:30:26;;;;;;;10.20;2.55;;;5.80;99.90;;;;;;5023575;28;20057;-75
2024/03/24 07:32:51;;;;;;;7.20;2.75;;;5.80;99.90;;;;;;5028252;28;20032;-75
2024/03/24 07:35:17;;;;;;;6.90;2.67;;;5.90;99.90;;;;;;5016513;28;20022;-75
2024/03/24 07:37:44;;;;;;;9.75;2.70;;;5.90;99.90;;;;;;5021190;28;20060;-75
2024/03/24 07:40:09;;;;;;;9.63;3.25;;;6.00;99.90;;;;;;5018331;28;20026;-75
2024/03/24 07:42:35;;;;;;;13.15;3.92;;;6.00;99.90;;;;;;5014543;28;20080;-75
2024/03/24 07:45:02;;;;;;;16.48;3.92;;;6.00;99.90;;;;;;5019429;28;20434;-74
2024/03/24 07:47:27;;;;;;;11.80;3.83;;;6.10;99.90;;;;;;5022519;28;20056;-73
2024/03/24 07:49:53;;;;;;;20.50;4.50;;;6.10;99.90;;;;;;5026254;28;20061;-74
2024/03/24 07:52:19;;;;;;;13.65;4.10;;;6.10;99.90;;;;;;5016466;28;20184;-74
2024/03/24 07:54:45;;;;;;;11.65;3.50;;;6.10;99.90;;;;;;5021934;28;20026;-74
2024/03/24 07:57:10;;;;;;;11.95;3.72;;;6.20;99.90;;;;;;5018561;28;20100;-74
2024/03/24 07:59:36;;;;;;;18.10;4.00;;;6.20;99.90;;;;;;5013694;28;20022;-74
2024/03/24 08:02:02;;;;;;;16.42;3.58;;;6.20;99.90;;;;;;5028393;28;20056;-75
2024/03/24 08:04:27;;;;;;;14.00;4.10;;;6.30;99.90;;;;;;5027779;28;20060;-74
2024/03/24 08:06:53;;;;;;;15.95;4.18;;;6.30;99.90;;;;;;5037405;28;20045;-74
2024/03/24 08:09:19;;;;;;;16.63;4.53;;;6.30;99.90;;;;;;5018222;28;20034;-74
2024/03/24 08:11:44;;;;;;;14.93;4.75;;;6.40;99.90;;;;;;5024036;28;20022;-74
2024/03/24 08:14:10;;;;;;;16.38;4.90;;;6.40;99.90;;;;;;5017822;28;20108;-74
2024/03/24 08:16:36;;;;;;;25.40;6.07;;;6.50;99.90;;;;;;5013875;28;20014;-74
2024/03/24 08:19:01;;;;;;;15.75;4.78;;;6.50;99.90;;;;;;5019651;28;20554;-74
2024/03/24 08:21:27;;;;;;;18.77;4.97;;;6.50;99.90;;;;;;5021388;28;20079;-75
2024/03/24 08:23:53;;;;;;;19.67;4.85;;;6.60;99.90;;;;;;5021872;28;20021;-76
2024/03/24 08:26:18;;;;;;;22.88;5.35;;;6.60;99.90;;;;;;5019649;28;20375;-75
2024/03/24 08:28:44;;;;;;;19.42;5.65;;;6.60;99.90;;;;;;5013233;28;20052;-75
2024/03/24 08:31:10;;;;;;;21.45;5.10;;;6.80;99.90;;;;;;5038458;28;20743;-75
2024/03/24 08:33:35;;;;;;;20.38;4.97;;;6.90;99.90;;;;;;5014284;28;20030;-75
2024/03/24 08:36:01;;;;;;;21.55;5.50;;;7.00;99.90;;;;;;5021217;28;20025;-75
2024/03/24 08:38:28;;;;;;;16.70;4.85;;;7.00;99.90;;;;;;5017407;28;20025;-74
2024/03/24 08:40:54;;;;;;;19.52;4.93;;;7.00;99.90;;;;;;5025175;28;20021;-75
2024/03/24 08:43:19;;;;;;;15.52;4.70;;;7.00;99.90;;;;;;5015511;28;20379;-74
2024/03/24 08:45:45;;;;;;;15.15;4.15;;;7.00;99.90;;;;;;5013278;28;20022;-75
2024/03/24 08:48:11;;;;;;;14.93;3.60;;;7.00;99.90;;;;;;5013092;28;20824;-74
2024/03/24 08:50:37;;;;;;;20.10;4.15;;;6.90;99.90;;;;;;5017100;28;20033;-74
2024/03/24 08:53:04;;;;;;;17.23;3.83;;;6.90;99.90;;;;;;5025040;28;20104;-74
2024/03/24 08:55:30;;;;;;;15.27;4.05;;;6.80;99.90;;;;;;5025535;28;20566;-74
2024/03/24 08:57:55;;;;;;;17.25;4.60;;;6.80;99.90;;;;;;5024576;28;20052;-75
2024/03/24 09:00:21;;;;;;;20.50;5.10;;;6.90;99.90;;;;;;5022912;28;20080;-75
2024/03/24 09:02:47;;;;;;;17.63;4.20;;;6.90;99.90;;;;;;5026673;28;20025;-74
2024/03/24 09:05:13;;;;;;;18.25;3.97;;;7.00;99.90;;;;;;5020680;28;20033;-74
2024/03/24 09:07:39;;;;;;;18.30;4.25;;;7.10;99.90;;;;;;5025693;28;20036;-74
2024/03/24 09:10:04;;;;;;;19.77;5.03;;;7.10;99.90;;;;;;5012629;28;20029;-75
2024/03/24 09:12:30;;;;;;;16.52;4.05;;;7.10;99.90;;;;;;5024617;28;20032;-75
2024/03/24 09:14:56;;;;;;;17.77;4.20;;;7.20;99.90;;;;;;5024129;28;20018;-74
2024/03/24 09:17:21;;;;;;;12.25;3.80;;;7.10;99.90;;;;;;5029230;28;20478;-74
2024/03/24 09:19:47;;;;;;;16.25;3.70;;;7.20;99.90;;;;;;5025166;28;20028;-75
2024/03/24 09:22:13;;;;;;;13.95;3.20;;;7.10;99.90;;;;;;5025944;28;20124;-75
2024/03/24 09:24:38;;;;;;;16.90;3.92;;;7.10;99.90;;;;;;5018666;28;20108;-74
2024/03/24 09:27:06;;;;;;;9.73;2.88;;;7.10;99.90;;;;;;5017687;28;20030;-74
2024/03/24 09:29:32;;;;;;;15.43;2.92;;;7.10;99.90;;;;;;5015957;28;20636;-74
2024/03/24 09:32:00;;;;;;;16.40;2.92;;;7.10;99.90;;;;;;5026102;28;20029;-74
2024/03/24 09:34:26;;;;;;;12.82;3.10;;;7.10;99.90;;;;;;5023621;28;20021;-74
2024/03/24 09:36:52;;;;;;;8.88;2.70;;;7.10;99.90;;;;;;5024498;28;20475;-74
2024/03/24 09:39:18;;;;;;;13.73;3.20;;;7.00;99.90;;;;;;5037593;28;20034;-75
2024/03/24 09:41:45;;;;;;;12.75;2.92;;;7.00;99.90;;;;;;5025740;28;20508;-75
2024/03/24 09:44:12;;;;;;;15.93;3.40;;;7.00;99.90;;;;;;5024872;28;20033;-74
2024/03/24 09:46:41;;;;;;;16.55;2.95;;;7.00;99.90;;;;;;5025638;28;20540;-74
2024/03/24 09:49:11;;;;;;;16.23;3.00;;;7.00;99.90;;;;;;5025029;28;20092;-74
2024/03/24 09:51:39;;;;;;;14.77;2.67;;;7.00;99.90;;;;;;5025523;28;20104;-74
2024/03/24 09:54:08;;;;;;;9.88;2.17;;;6.90;99.90;;;;;;5016868;28;20025;-74
2024/03/24 09:56:35;;;;;;;11.00;2.13;;;6.90;99.90;;;;;;5024255;28;20032;-74
2024/03/24 09:59:03;;;;;;;10.80;2.47;;;6.70;99.90;;;;;;5020856;28;20021;-74
2024/03/24 10:01:38;;;;;;;8.88;2.05;;;6.70;99.90;;;;;;5037094;28;20104;-74
2024/03/24 10:04:07;;;;;;;5.93;1.65;;;6.70;99.90;;;;;;5016596;28;20021;-74
2024/03/24 10:06:34;;;;;;;10.10;1.67;;;6.70;99.90;;;;;;5021946;28;20033;-74
2024/03/24 10:09:00;;;;;;;8.95;1.85;;;6.70;99.90;;;;;;5016994;28;20057;-74
2024/03/24 10:11:31;;;;;;;6.40;1.60;;;6.70;99.90;;;;;;5015430;28;20112;-75
2024/03/24 10:14:02;;;;;;;5.00;1.52;;;6.70;99.90;;;;;;5029702;28;20022;-75
2024/03/24 10:16:27;;;;;;;7.30;1.42;;;6.70;99.90;;;;;;5029214;28;20451;-76
2024/03/24 10:18:53;;;;;;;5.60;1.88;;;6.60;99.90;;;;;;5023009;28;20125;-76
2024/03/24 10:21:20;;;;;;;5.18;1.60;;;6.60;99.90;;;;;;5021830;28;20033;-76
2024/03/24 10:23:49;;;;;;;7.40;1.60;;;6.70;99.90;;;;;;5023286;28;20032;-76
2024/03/24 10:26:22;;;;;;;11.82;2.42;;;6.80;99.90;;;;;;5020626;28;20064;-76
2024/03/24 10:28:51;;;;;;;10.55;1.88;;;6.90;99.90;;;;;;5015046;28;20022;-76
2024/03/24 10:31:17;;;;;;;8.15;1.80;;;7.00;99.90;;;;;;5011034;28;20038;-76
2024/03/24 10:33:46;;;;;;;6.65;1.63;;;7.20;99.90;;;;;;5023365;28;20037;-76
2024/03/24 10:36:12;;;;;;;13.18;2.22;;;7.20;99.90;;;;;;5014102;28;20345;-74
2024/03/24 10:38:37;;;;;;;13.00;2.40;;;7.20;99.90;;;;;;5027535;28;20028;-75
2024/03/24 10:41:05;;;;;;;10.07;2.80;;;7.20;99.90;;;;;;5026380;28;20026;-75
2024/03/24 10:43:31;;;;;;;7.85;1.73;;;7.20;99.90;;;;;;5027121;28;20487;-75
2024/03/24 10:45:57;;;;;;;12.73;2.55;;;7.30;99.90;;;;;;5020798;28;20040;-75
2024/03/24 10:48:31;;;;;;;10.57;2.17;;;7.30;99.90;;;;;;5025260;28;20044;-73
2024/03/24 10:50:59;;;;;;;9.95;1.58;;;7.30;99.90;;;;;;5013020;28;20029;-74
2024/03/24 10:53:31;;;;;;;10.63;2.10;;;7.40;99.90;;;;;;5023116;28;20115;-74
2024/03/24 10:55:58;;;;;;;8.88;1.90;;;7.40;99.90;;;;;;5027304;28;20026;-73
2024/03/24 10:58:24;;;;;;;10.32;1.77;;;7.50;99.90;;;;;;5028543;28;20033;-74
2024/03/24 11:00:51;;;;;;;7.60;1.40;;;7.60;99.90;;;;;;5027008;28;20502;-75
2024/03/24 11:03:19;;;;;;;9.10;1.77;;;7.60;99.90;;;;;;5014870;28;20056;-74
2024/03/24 11:05:46;;;;;;;12.40;2.90;;;7.70;99.90;;;;;;5027234;28;20024;-74
2024/03/24 11:08:13;;;;;;;12.23;2.15;;;7.70;99.90;;;;;;5026408;28;20025;-74
2024/03/24 11:10:54;;;;;;;6.95;1.95;;;7.70;99.90;;;;;;5016827;28;20497;-74
2024/03/24 11:13:22;;;;;;;;;;;7.80;99.90;;;;;;5021825;28;20025;-74
2024/03/24 11:15:49;;;;;;;14.90;2.58;;;7.80;99.90;;;;;;5023112;28;20255;-73
2024/03/24 11:18:24;;;;;;;9.75;2.30;;;7.80;99.90;;;;;;5014526;28;20037;-73
2024/03/24 11:20:54;;;;;;;12.07;2.22;;;7.90;99.90;;;;;;5014934;28;20013;-73
2024/03/24 11:23:21;;;;;;;10.95;2.30;;;8.00;99.90;;;;;;5016498;28;20061;-73
2024/03/24 11:25:51;;;;;;;11.25;2.33;;;8.10;99.90;;;;;;5014507;28;20025;-75
2024/03/24 11:28:44;;;;;;;13.82;2.50;;;8.20;99.90;;;;;;5028144;28;20022;-75
2024/03/24 11:31:22;;;;;;;11.73;2.40;;;8.50;99.90;;;;;;5020260;28;20357;-75
2024/03/24 11:34:03;;;;;;;8.27;1.83;;;8.60;99.90;;;;;;5021374;28;20029;-73
2024/03/24 11:36:32;;;;;;;9.60;2.67;;;8.80;99.90;;;;;;5016984;28;20037;-74
2024/03/24 11:38:58;;;;;;;14.55;2.55;;;9.00;99.90;;;;;;5026152;28;20022;-74
2024/03/24 11:41:24;;;;;;;13.77;2.92;;;9.00;99.90;;;;;;5021030;28;20099;-74
2024/03/24 11:43:56;;;;;;;12.65;2.85;;;9.00;99.90;;;;;;5025167;28;20533;-74
2024/03/24 11:46:22;;;;;;;15.90;2.92;;;8.90;99.90;;;;;;5026597;28;20104;-74
2024/03/24 11:48:49;;;;;;;10.90;2.17;;;8.90;99.90;;;;;;5025879;28;20032;-74
2024/03/24 11:51:15;;;;;;;9.55;2.50;;;8.80;99.90;;;;;;5023997;28;20231;-74
2024/03/24 11:53:41;;;;;;;9.80;2.13;;;8.80;99.90;;;;;;5025558;28;20285;-74
2024/03/24 11:56:07;;;;;;;10.35;2.50;;;8.80;99.90;;;;;;5026795;28;20954;-74
2024/03/24 11:58:32;;;;;;;11.85;2.53;;;8.80;99.90;;;;;;5027608;28;20101;-74
2024/03/24 12:01:00;;;;;;;12.65;2.40;;;8.70;99.90;;;;;;5021481;28;20025;-73
2024/03/24 12:03:25;;;;;;;11.13;2.30;;;8.70;99.90;;;;;;5027147;28;20049;-74
2024/03/24 12:05:54;;;;;;;12.40;2.58;;;8.70;99.90;;;;;;5026314;28;20057;-74
2024/03/24 12:08:21;;;;;;;12.40;1.65;;;8.60;99.90;;;;;;5024921;28;20037;-73
2024/03/24 12:10:47;;;;;;;7.43;2.08;;;8.60;99.90;;;;;;5017003;28;20091;-73
2024/03/24 12:13:15;;;;;;;9.45;2.28;;;8.40;99.90;;;;;;5024360;28;20499;-74
2024/03/24 12:15:41;;;;;;;7.80;1.70;;;8.40;99.90;;;;;;5018096;28;20017;-74
2024/03/24 12:18:09;;;;;;;7.22;2.33;;;8.30;99.90;;;;;;5026007;28;20045;-75
2024/03/24 12:20:36;;;;;;;12.00;2.40;;;8.30;99.90;;;;;;5023370;28;20025;-74
2024/03/24 12:23:02;;;;;;;11.90;2.00;;;8.40;99.90;;;;;;5017024;28;20687;-74
2024/03/24 12:25:28;;;;;;;9.27;1.67;;;8.40;99.90;;;;;;5021250;28;20025;-73
2024/03/24 12:27:55;;;;;;;8.93;2.33;;;8.50;99.90;;;;;;5022354;28;20200;-74
2024/03/24 12:30:22;;;;;;;9.52;1.60;;;8.60;99.90;;;;;;5020670;28;20116;-74
2024/03/24 12:32:49;;;;;;;12.40;1.88;;;8.70;99.90;;;;;;5025819;28;20112;-74
2024/03/24 12:35:16;;;;;;;9.43;1.50;;;8.90;99.90;;;;;;5019460;28;20364;-73
2024/03/24 12:37:42;;;;;;;9.73;1.90;;;9.10;99.90;;;;;;5026488;28;20457;-73
2024/03/24 12:40:15;;;;;;;7.53;1.70;;;9.30;99.90;;;;;;5022907;28;20025;-74
2024/03/24 12:42:40;;;;;;;8.43;1.70;;;9.40;99.90;;;;;;5016251;28;20038;-74
2024/03/24 12:45:10;;;;;;;9.23;1.80;;;9.60;99.90;;;;;;5021736;28;20087;-74
2024/03/24 12:47:36;;;;;;;15.63;2.75;;;9.60;99.90;;;;;;5021277;28;20034;-74
2024/03/24 12:50:03;;;;;;;9.55;1.88;;;9.70;99.90;;;;;;5024203;28;20320;-74